sensor_id;sensor_type;location;lat;lon;timestamp;P1;durP1;ratioP1;P2;durP2;ratioP2
12852;SDS011;6495;51.808;7.478;2024-02-26T00:00:03;2.87;;;1.57;;
12852;SDS011;6495;51.808;7.478;2024-02-26T00:02:35;3.07;;;2.10;;
12852;SDS011;6495;51.808;7.478;2024-02-26T00:05:05;2.27;;;2.03;;
12852;SDS011;6495;51.808;7.478;2024-02-26T00:07:34;2.50;;;1.93;;
12852;SDS011;6495;51.808;7.478;2024-02-26T00:10:04;2.57;;;2.10;;
12852;SDS011;6495;51.808;7.478;2024-02-26T00:12:34;3.27;;;2.23;;
12852;SDS011;6495;51.808;7.478;2024-02-26T00:15:04;2.60;;;2.20;;
12852;SDS011;6495;51.808;7.478;2024-02-26T00:17:33;3.37;;;2.33;;
12852;SDS011;6495;51.808;7.478;2024-02-26T00:20:01;2.10;;;1.90;;
12852;SDS011;6495;51.808;7.478;2024-02-26T00:22:31;2.77;;;2.10;;
12852;SDS011;6495;51.808;7.478;2024-02-26T00:24:59;3.80;;;2.43;;
12852;SDS011;6495;51.808;7.478;2024-02-26T00:27:28;3.27;;;2.20;;
12852;SDS011;6495;51.808;7.478;2024-02-26T00:29:56;2.60;;;2.03;;
12852;SDS011;6495;51.808;7.478;2024-02-26T00:32:26;2.17;;;1.80;;
12852;SDS011;6495;51.808;7.478;2024-02-26T00:34:54;2.13;;;1.80;;
12852;SDS011;6495;51.808;7.478;2024-02-26T00:37:23;2.10;;;1.90;;
12852;SDS011;6495;51.808;7.478;2024-02-26T00:39:51;2.57;;;2.10;;
12852;SDS011;6495;51.808;7.478;2024-02-26T00:42:20;2.47;;;2.07;;
12852;SDS011;6495;51.808;7.478;2024-02-26T00:44:49;2.30;;;2.07;;
12852;SDS011;6495;51.808;7.478;2024-02-26T00:47:17;2.57;;;2.00;;
12852;SDS011;6495;51.808;7.478;2024-02-26T00:49:46;2.80;;;2.20;;
12852;SDS011;6495;51.808;7.478;2024-02-26T00:52:15;2.30;;;2.10;;
12852;SDS011;6495;51.808;7.478;2024-02-26T00:54:43;2.80;;;1.90;;
12852;SDS011;6495;51.808;7.478;2024-02-26T00:57:12;2.23;;;1.80;;
12852;SDS011;6495;51.808;7.478;2024-02-26T00:59:40;3.37;;;2.10;;
12852;SDS011;6495;51.808;7.478;2024-02-26T01:02:08;2.63;;;2.10;;
12852;SDS011;6495;51.808;7.478;2024-02-26T01:04:37;2.07;;;1.87;;
12852;SDS011;6495;51.808;7.478;2024-02-26T01:07:07;2.17;;;1.97;;
12852;SDS011;6495;51.808;7.478;2024-02-26T01:09:36;2.77;;;1.90;;
12852;SDS011;6495;51.808;7.478;2024-02-26T01:12:05;2.33;;;2.13;;
12852;SDS011;6495;51.808;7.478;2024-02-26T01:14:34;3.20;;;1.87;;
12852;SDS011;6495;51.808;7.478;2024-02-26T01:17:02;1.60;;;1.50;;
12852;SDS011;6495;51.808;7.478;2024-02-26T01:19:31;3.63;;;1.83;;
12852;SDS011;6495;51.808;7.478;2024-02-26T01:21:59;2.10;;;1.60;;
12852;SDS011;6495;51.808;7.478;2024-02-26T01:24:29;1.83;;;1.73;;
12852;SDS011;6495;51.808;7.478;2024-02-26T01:26:57;3.53;;;1.50;;
12852;SDS011;6495;51.808;7.478;2024-02-26T01:29:25;2.60;;;1.90;;
12852;SDS011;6495;51.808;7.478;2024-02-26T01:31:54;2.27;;;1.63;;
12852;SDS011;6495;51.808;7.478;2024-02-26T01:34:22;4.43;;;2.27;;
12852;SDS011;6495;51.808;7.478;2024-02-26T01:36:51;3.63;;;1.60;;
12852;SDS011;6495;51.808;7.478;2024-02-26T01:39:19;3.47;;;2.00;;
12852;SDS011;6495;51.808;7.478;2024-02-26T01:41:50;3.27;;;1.50;;
12852;SDS011;6495;51.808;7.478;2024-02-26T01:44:18;3.57;;;1.60;;
12852;SDS011;6495;51.808;7.478;2024-02-26T01:46:47;5.80;;;2.00;;
12852;SDS011;6495;51.808;7.478;2024-02-26T01:49:16;1.63;;;1.43;;
12852;SDS011;6495;51.808;7.478;2024-02-26T01:51:45;2.17;;;1.90;;
12852;SDS011;6495;51.808;7.478;2024-02-26T01:54:13;3.63;;;1.50;;
12852;SDS011;6495;51.808;7.478;2024-02-26T01:56:42;1.67;;;1.50;;
12852;SDS011;6495;51.808;7.478;2024-02-26T01:59:12;1.97;;;1.40;;
12852;SDS011;6495;51.808;7.478;2024-02-26T02:01:41;2.07;;;1.50;;
12852;SDS011;6495;51.808;7.478;2024-02-26T02:04:17;2.23;;;1.60;;
12852;SDS011;6495;51.808;7.478;2024-02-26T02:06:46;2.87;;;1.60;;
12852;SDS011;6495;51.808;7.478;2024-02-26T02:09:15;2.17;;;1.50;;
12852;SDS011;6495;51.808;7.478;2024-02-26T02:11:43;2.23;;;1.67;;
12852;SDS011;6495;51.808;7.478;2024-02-26T02:14:14;1.97;;;1.50;;
12852;SDS011;6495;51.808;7.478;2024-02-26T02:16:42;1.23;;;1.10;;
12852;SDS011;6495;51.808;7.478;2024-02-26T02:19:11;1.47;;;1.30;;
12852;SDS011;6495;51.808;7.478;2024-02-26T02:21:40;1.33;;;1.10;;
12852;SDS011;6495;51.808;7.478;2024-02-26T02:24:09;1.40;;;1.27;;
12852;SDS011;6495;51.808;7.478;2024-02-26T02:26:37;2.90;;;1.40;;
12852;SDS011;6495;51.808;7.478;2024-02-26T02:29:06;1.83;;;1.30;;
12852;SDS011;6495;51.808;7.478;2024-02-26T02:31:36;1.43;;;1.33;;
12852;SDS011;6495;51.808;7.478;2024-02-26T02:34:04;3.37;;;1.60;;
12852;SDS011;6495;51.808;7.478;2024-02-26T02:36:33;1.37;;;1.27;;
12852;SDS011;6495;51.808;7.478;2024-02-26T02:39:03;1.87;;;1.20;;
12852;SDS011;6495;51.808;7.478;2024-02-26T02:41:31;2.03;;;1.20;;
12852;SDS011;6495;51.808;7.478;2024-02-26T02:43:59;2.27;;;1.33;;
12852;SDS011;6495;51.808;7.478;2024-02-26T02:46:28;1.90;;;1.30;;
12852;SDS011;6495;51.808;7.478;2024-02-26T02:48:59;1.73;;;1.23;;
12852;SDS011;6495;51.808;7.478;2024-02-26T02:51:28;1.67;;;1.40;;
12852;SDS011;6495;51.808;7.478;2024-02-26T02:53:57;1.77;;;1.67;;
12852;SDS011;6495;51.808;7.478;2024-02-26T02:56:26;2.13;;;1.70;;
12852;SDS011;6495;51.808;7.478;2024-02-26T02:58:55;2.00;;;1.50;;
12852;SDS011;6495;51.808;7.478;2024-02-26T03:01:23;2.00;;;1.80;;
12852;SDS011;6495;51.808;7.478;2024-02-26T03:03:52;1.70;;;1.60;;
12852;SDS011;6495;51.808;7.478;2024-02-26T03:06:20;2.10;;;1.70;;
12852;SDS011;6495;51.808;7.478;2024-02-26T03:08:49;1.50;;;1.40;;
12852;SDS011;6495;51.808;7.478;2024-02-26T03:11:17;3.03;;;1.93;;
12852;SDS011;6495;51.808;7.478;2024-02-26T03:13:47;2.20;;;1.70;;
12852;SDS011;6495;51.808;7.478;2024-02-26T03:16:16;1.90;;;1.70;;
12852;SDS011;6495;51.808;7.478;2024-02-26T03:18:45;2.63;;;2.03;;
12852;SDS011;6495;51.808;7.478;2024-02-26T03:21:14;2.53;;;1.93;;
12852;SDS011;6495;51.808;7.478;2024-02-26T03:23:42;2.10;;;1.70;;
12852;SDS011;6495;51.808;7.478;2024-02-26T03:26:11;2.47;;;1.60;;
12852;SDS011;6495;51.808;7.478;2024-02-26T03:28:41;2.73;;;2.00;;
12852;SDS011;6495;51.808;7.478;2024-02-26T03:31:10;2.93;;;1.70;;
12852;SDS011;6495;51.808;7.478;2024-02-26T03:33:39;2.37;;;1.50;;
12852;SDS011;6495;51.808;7.478;2024-02-26T03:36:07;3.17;;;1.40;;
12852;SDS011;6495;51.808;7.478;2024-02-26T03:38:36;2.03;;;1.70;;
12852;SDS011;6495;51.808;7.478;2024-02-26T03:41:05;4.00;;;1.70;;
12852;SDS011;6495;51.808;7.478;2024-02-26T03:43:35;2.13;;;1.70;;
12852;SDS011;6495;51.808;7.478;2024-02-26T03:46:04;2.73;;;1.60;;
12852;SDS011;6495;51.808;7.478;2024-02-26T03:48:36;1.27;;;1.17;;
12852;SDS011;6495;51.808;7.478;2024-02-26T03:51:05;1.83;;;1.50;;
12852;SDS011;6495;51.808;7.478;2024-02-26T03:53:33;2.37;;;1.20;;
12852;SDS011;6495;51.808;7.478;2024-02-26T03:56:03;1.53;;;1.37;;
12852;SDS011;6495;51.808;7.478;2024-02-26T03:58:32;2.47;;;1.60;;
12852;SDS011;6495;51.808;7.478;2024-02-26T04:01:01;4.10;;;1.47;;
12852;SDS011;6495;51.808;7.478;2024-02-26T04:03:29;1.87;;;1.37;;
12852;SDS011;6495;51.808;7.478;2024-02-26T04:05:59;4.00;;;1.70;;
12852;SDS011;6495;51.808;7.478;2024-02-26T04:08:28;1.93;;;1.73;;
12852;SDS011;6495;51.808;7.478;2024-02-26T04:10:56;1.37;;;1.20;;
12852;SDS011;6495;51.808;7.478;2024-02-26T04:13:25;2.20;;;1.30;;
12852;SDS011;6495;51.808;7.478;2024-02-26T04:15:53;1.67;;;1.57;;
12852;SDS011;6495;51.808;7.478;2024-02-26T04:18:21;1.37;;;1.27;;
12852;SDS011;6495;51.808;7.478;2024-02-26T04:20:50;2.50;;;1.60;;
12852;SDS011;6495;51.808;7.478;2024-02-26T04:23:20;1.80;;;1.40;;
12852;SDS011;6495;51.808;7.478;2024-02-26T04:25:49;1.70;;;1.60;;
12852;SDS011;6495;51.808;7.478;2024-02-26T04:28:19;1.57;;;1.47;;
12852;SDS011;6495;51.808;7.478;2024-02-26T04:30:48;1.47;;;1.20;;
12852;SDS011;6495;51.808;7.478;2024-02-26T04:33:16;3.07;;;1.20;;
12852;SDS011;6495;51.808;7.478;2024-02-26T04:35:45;2.27;;;1.07;;
12852;SDS011;6495;51.808;7.478;2024-02-26T04:38:14;1.40;;;1.30;;
12852;SDS011;6495;51.808;7.478;2024-02-26T04:40:43;1.50;;;1.30;;
12852;SDS011;6495;51.808;7.478;2024-02-26T04:43:13;1.77;;;1.47;;
12852;SDS011;6495;51.808;7.478;2024-02-26T04:45:42;2.80;;;1.33;;
12852;SDS011;6495;51.808;7.478;2024-02-26T04:48:10;2.37;;;1.60;;
12852;SDS011;6495;51.808;7.478;2024-02-26T04:50:39;4.37;;;1.60;;
12852;SDS011;6495;51.808;7.478;2024-02-26T04:53:09;1.57;;;1.37;;
12852;SDS011;6495;51.808;7.478;2024-02-26T04:55:39;1.30;;;1.20;;
12852;SDS011;6495;51.808;7.478;2024-02-26T04:58:08;1.33;;;1.20;;
12852;SDS011;6495;51.808;7.478;2024-02-26T05:00:36;4.43;;;1.37;;
12852;SDS011;6495;51.808;7.478;2024-02-26T05:03:05;1.33;;;1.00;;
12852;SDS011;6495;51.808;7.478;2024-02-26T05:05:34;2.27;;;1.60;;
12852;SDS011;6495;51.808;7.478;2024-02-26T05:08:02;1.33;;;1.23;;
12852;SDS011;6495;51.808;7.478;2024-02-26T05:10:31;1.37;;;1.10;;
12852;SDS011;6495;51.808;7.478;2024-02-26T05:13:00;1.60;;;1.20;;
12852;SDS011;6495;51.808;7.478;2024-02-26T05:15:29;1.90;;;1.23;;
12852;SDS011;6495;51.808;7.478;2024-02-26T05:17:58;1.00;;;1.00;;
12852;SDS011;6495;51.808;7.478;2024-02-26T05:20:27;1.40;;;1.30;;
12852;SDS011;6495;51.808;7.478;2024-02-26T05:22:55;1.53;;;1.20;;
12852;SDS011;6495;51.808;7.478;2024-02-26T05:25:25;1.37;;;1.27;;
12852;SDS011;6495;51.808;7.478;2024-02-26T05:27:53;1.40;;;1.30;;
12852;SDS011;6495;51.808;7.478;2024-02-26T05:30:22;1.80;;;1.50;;
12852;SDS011;6495;51.808;7.478;2024-02-26T05:32:59;2.20;;;1.40;;
12852;SDS011;6495;51.808;7.478;2024-02-26T05:35:33;1.90;;;1.40;;
12852;SDS011;6495;51.808;7.478;2024-02-26T05:38:01;2.40;;;1.57;;
12852;SDS011;6495;51.808;7.478;2024-02-26T05:40:36;2.03;;;1.37;;
12852;SDS011;6495;51.808;7.478;2024-02-26T05:43:05;2.27;;;1.50;;
12852;SDS011;6495;51.808;7.478;2024-02-26T05:45:36;1.63;;;1.40;;
12852;SDS011;6495;51.808;7.478;2024-02-26T05:48:06;4.40;;;1.70;;
12852;SDS011;6495;51.808;7.478;2024-02-26T05:50:35;1.43;;;1.23;;
12852;SDS011;6495;51.808;7.478;2024-02-26T05:53:03;1.73;;;1.47;;
12852;SDS011;6495;51.808;7.478;2024-02-26T05:55:32;1.80;;;1.30;;
12852;SDS011;6495;51.808;7.478;2024-02-26T05:58:00;1.73;;;1.27;;
12852;SDS011;6495;51.808;7.478;2024-02-26T06:00:36;2.87;;;1.40;;
12852;SDS011;6495;51.808;7.478;2024-02-26T06:03:06;1.50;;;1.40;;
12852;SDS011;6495;51.808;7.478;2024-02-26T06:05:35;1.77;;;1.17;;
12852;SDS011;6495;51.808;7.478;2024-02-26T06:08:04;1.97;;;1.27;;
12852;SDS011;6495;51.808;7.478;2024-02-26T06:10:34;1.27;;;1.17;;
12852;SDS011;6495;51.808;7.478;2024-02-26T06:13:03;1.90;;;1.60;;
12852;SDS011;6495;51.808;7.478;2024-02-26T06:15:31;1.80;;;1.30;;
12852;SDS011;6495;51.808;7.478;2024-02-26T06:18:00;1.37;;;1.20;;
12852;SDS011;6495;51.808;7.478;2024-02-26T06:20:32;1.57;;;1.30;;
12852;SDS011;6495;51.808;7.478;2024-02-26T06:23:01;3.97;;;1.60;;
12852;SDS011;6495;51.808;7.478;2024-02-26T06:25:33;1.17;;;1.03;;
12852;SDS011;6495;51.808;7.478;2024-02-26T06:28:02;2.10;;;1.37;;
12852;SDS011;6495;51.808;7.478;2024-02-26T06:30:31;1.70;;;1.30;;
12852;SDS011;6495;51.808;7.478;2024-02-26T06:32:59;1.20;;;1.10;;
12852;SDS011;6495;51.808;7.478;2024-02-26T06:35:28;1.60;;;1.20;;
12852;SDS011;6495;51.808;7.478;2024-02-26T06:37:58;1.73;;;1.30;;
12852;SDS011;6495;51.808;7.478;2024-02-26T06:40:27;1.23;;;1.03;;
12852;SDS011;6495;51.808;7.478;2024-02-26T06:42:55;1.43;;;1.10;;
12852;SDS011;6495;51.808;7.478;2024-02-26T06:45:24;1.10;;;1.00;;
12852;SDS011;6495;51.808;7.478;2024-02-26T06:47:52;1.37;;;1.00;;
12852;SDS011;6495;51.808;7.478;2024-02-26T06:50:29;1.10;;;0.97;;
12852;SDS011;6495;51.808;7.478;2024-02-26T06:53:02;1.80;;;1.20;;
12852;SDS011;6495;51.808;7.478;2024-02-26T06:55:31;1.40;;;0.93;;
12852;SDS011;6495;51.808;7.478;2024-02-26T06:57:59;1.33;;;0.90;;
12852;SDS011;6495;51.808;7.478;2024-02-26T07:00:27;1.50;;;0.77;;
12852;SDS011;6495;51.808;7.478;2024-02-26T07:02:56;0.97;;;0.87;;
12852;SDS011;6495;51.808;7.478;2024-02-26T07:05:25;1.17;;;1.00;;
12852;SDS011;6495;51.808;7.478;2024-02-26T07:07:54;2.03;;;1.20;;
12852;SDS011;6495;51.808;7.478;2024-02-26T07:10:24;1.47;;;1.10;;
12852;SDS011;6495;51.808;7.478;2024-02-26T07:12:52;1.20;;;1.00;;
12852;SDS011;6495;51.808;7.478;2024-02-26T07:15:22;0.90;;;0.90;;
12852;SDS011;6495;51.808;7.478;2024-02-26T07:17:50;0.97;;;0.97;;
12852;SDS011;6495;51.808;7.478;2024-02-26T07:20:19;0.97;;;0.97;;
12852;SDS011;6495;51.808;7.478;2024-02-26T07:22:47;1.67;;;1.20;;
12852;SDS011;6495;51.808;7.478;2024-02-26T07:25:16;0.97;;;0.83;;
12852;SDS011;6495;51.808;7.478;2024-02-26T07:27:46;1.43;;;0.90;;
12852;SDS011;6495;51.808;7.478;2024-02-26T07:30:14;1.13;;;0.80;;
12852;SDS011;6495;51.808;7.478;2024-02-26T07:32:43;1.17;;;0.90;;
12852;SDS011;6495;51.808;7.478;2024-02-26T07:35:17;2.40;;;1.00;;
12852;SDS011;6495;51.808;7.478;2024-02-26T07:37:51;1.40;;;1.30;;
12852;SDS011;6495;51.808;7.478;2024-02-26T07:40:21;2.17;;;1.03;;
12852;SDS011;6495;51.808;7.478;2024-02-26T07:42:50;1.40;;;1.00;;
12852;SDS011;6495;51.808;7.478;2024-02-26T07:45:19;1.67;;;1.10;;
12852;SDS011;6495;51.808;7.478;2024-02-26T07:47:48;2.93;;;1.20;;
12852;SDS011;6495;51.808;7.478;2024-02-26T07:50:18;7.17;;;1.33;;
12852;SDS011;6495;51.808;7.478;2024-02-26T07:52:47;3.10;;;1.20;;
12852;SDS011;6495;51.808;7.478;2024-02-26T07:55:17;1.93;;;1.10;;
12852;SDS011;6495;51.808;7.478;2024-02-26T07:57:46;1.80;;;1.07;;
12852;SDS011;6495;51.808;7.478;2024-02-26T08:00:17;2.73;;;1.03;;
12852;SDS011;6495;51.808;7.478;2024-02-26T08:02:46;1.47;;;1.37;;
12852;SDS011;6495;51.808;7.478;2024-02-26T08:05:14;1.27;;;0.97;;
12852;SDS011;6495;51.808;7.478;2024-02-26T08:07:43;2.17;;;1.33;;
12852;SDS011;6495;51.808;7.478;2024-02-26T08:10:11;2.07;;;1.20;;
12852;SDS011;6495;51.808;7.478;2024-02-26T08:12:40;1.30;;;1.03;;
12852;SDS011;6495;51.808;7.478;2024-02-26T08:15:09;1.00;;;1.00;;
12852;SDS011;6495;51.808;7.478;2024-02-26T08:17:39;1.13;;;1.00;;
12852;SDS011;6495;51.808;7.478;2024-02-26T08:20:08;1.23;;;1.07;;
12852;SDS011;6495;51.808;7.478;2024-02-26T08:22:37;1.20;;;1.10;;
12852;SDS011;6495;51.808;7.478;2024-02-26T08:25:06;2.43;;;1.30;;
12852;SDS011;6495;51.808;7.478;2024-02-26T08:27:36;1.67;;;1.30;;
12852;SDS011;6495;51.808;7.478;2024-02-26T08:30:05;0.90;;;0.80;;
12852;SDS011;6495;51.808;7.478;2024-02-26T08:32:35;1.80;;;1.17;;
12852;SDS011;6495;51.808;7.478;2024-02-26T08:35:06;4.93;;;1.40;;
12852;SDS011;6495;51.808;7.478;2024-02-26T08:37:35;2.50;;;1.20;;
12852;SDS011;6495;51.808;7.478;2024-02-26T08:40:04;2.13;;;1.60;;
12852;SDS011;6495;51.808;7.478;2024-02-26T08:42:37;2.63;;;1.33;;
12852;SDS011;6495;51.808;7.478;2024-02-26T08:45:06;2.37;;;1.10;;
12852;SDS011;6495;51.808;7.478;2024-02-26T08:47:36;1.43;;;1.33;;
12852;SDS011;6495;51.808;7.478;2024-02-26T08:50:06;1.70;;;1.50;;
12852;SDS011;6495;51.808;7.478;2024-02-26T08:52:38;2.40;;;1.50;;
12852;SDS011;6495;51.808;7.478;2024-02-26T08:55:07;2.80;;;1.50;;
12852;SDS011;6495;51.808;7.478;2024-02-26T08:57:36;3.30;;;1.30;;
12852;SDS011;6495;51.808;7.478;2024-02-26T09:00:05;2.60;;;1.53;;
12852;SDS011;6495;51.808;7.478;2024-02-26T09:02:38;2.00;;;1.33;;
12852;SDS011;6495;51.808;7.478;2024-02-26T09:05:10;1.83;;;1.30;;
12852;SDS011;6495;51.808;7.478;2024-02-26T09:07:39;2.73;;;1.77;;
12852;SDS011;6495;51.808;7.478;2024-02-26T09:10:07;2.63;;;1.60;;
12852;SDS011;6495;51.808;7.478;2024-02-26T09:12:37;2.53;;;1.77;;
12852;SDS011;6495;51.808;7.478;2024-02-26T09:15:06;1.83;;;1.40;;
12852;SDS011;6495;51.808;7.478;2024-02-26T09:17:36;2.60;;;1.87;;
12852;SDS011;6495;51.808;7.478;2024-02-26T09:20:05;2.83;;;1.50;;
12852;SDS011;6495;51.808;7.478;2024-02-26T09:22:37;1.70;;;1.50;;
12852;SDS011;6495;51.808;7.478;2024-02-26T09:25:06;2.40;;;1.67;;
12852;SDS011;6495;51.808;7.478;2024-02-26T09:27:35;2.70;;;1.73;;
12852;SDS011;6495;51.808;7.478;2024-02-26T09:30:09;3.50;;;2.10;;
12852;SDS011;6495;51.808;7.478;2024-02-26T09:32:39;2.77;;;2.20;;
12852;SDS011;6495;51.808;7.478;2024-02-26T09:35:08;3.07;;;1.90;;
12852;SDS011;6495;51.808;7.478;2024-02-26T09:37:38;3.17;;;2.20;;
12852;SDS011;6495;51.808;7.478;2024-02-26T09:40:07;3.03;;;2.07;;
12852;SDS011;6495;51.808;7.478;2024-02-26T09:42:40;1.90;;;1.70;;
12852;SDS011;6495;51.808;7.478;2024-02-26T09:45:17;4.60;;;2.13;;
12852;SDS011;6495;51.808;7.478;2024-02-26T09:47:47;3.30;;;2.50;;
12852;SDS011;6495;51.808;7.478;2024-02-26T09:50:17;2.90;;;2.20;;
12852;SDS011;6495;51.808;7.478;2024-02-26T09:52:52;4.50;;;2.40;;
12852;SDS011;6495;51.808;7.478;2024-02-26T09:55:24;3.63;;;2.47;;
12852;SDS011;6495;51.808;7.478;2024-02-26T09:57:52;3.20;;;2.10;;
12852;SDS011;6495;51.808;7.478;2024-02-26T10:00:22;3.47;;;2.13;;
12852;SDS011;6495;51.808;7.478;2024-02-26T10:02:53;3.40;;;2.33;;
12852;SDS011;6495;51.808;7.478;2024-02-26T10:05:25;3.20;;;2.10;;
12852;SDS011;6495;51.808;7.478;2024-02-26T10:07:59;2.17;;;1.97;;
12852;SDS011;6495;51.808;7.478;2024-02-26T10:10:29;5.33;;;2.63;;
12852;SDS011;6495;51.808;7.478;2024-02-26T10:12:59;3.60;;;2.03;;
12852;SDS011;6495;51.808;7.478;2024-02-26T10:15:31;3.73;;;2.47;;
12852;SDS011;6495;51.808;7.478;2024-02-26T10:18:00;3.47;;;2.60;;
12852;SDS011;6495;51.808;7.478;2024-02-26T10:20:58;3.43;;;2.40;;
12852;SDS011;6495;51.808;7.478;2024-02-26T10:23:31;3.27;;;2.57;;
12852;SDS011;6495;51.808;7.478;2024-02-26T10:25:59;3.87;;;2.60;;
12852;SDS011;6495;51.808;7.478;2024-02-26T10:28:29;3.60;;;2.63;;
12852;SDS011;6495;51.808;7.478;2024-02-26T10:30:58;3.80;;;2.73;;
12852;SDS011;6495;51.808;7.478;2024-02-26T10:33:26;4.97;;;3.10;;
12852;SDS011;6495;51.808;7.478;2024-02-26T10:36:01;3.90;;;3.00;;
12852;SDS011;6495;51.808;7.478;2024-02-26T10:38:33;4.93;;;3.47;;
12852;SDS011;6495;51.808;7.478;2024-02-26T10:41:03;4.40;;;3.20;;
12852;SDS011;6495;51.808;7.478;2024-02-26T10:43:37;3.10;;;2.33;;
12852;SDS011;6495;51.808;7.478;2024-02-26T10:46:07;4.47;;;2.73;;
12852;SDS011;6495;51.808;7.478;2024-02-26T10:48:38;4.77;;;2.47;;
12852;SDS011;6495;51.808;7.478;2024-02-26T10:51:08;4.77;;;3.00;;
12852;SDS011;6495;51.808;7.478;2024-02-26T10:53:42;6.13;;;3.20;;
12852;SDS011;6495;51.808;7.478;2024-02-26T10:56:15;5.87;;;3.40;;
12852;SDS011;6495;51.808;7.478;2024-02-26T10:58:46;6.17;;;3.60;;
12852;SDS011;6495;51.808;7.478;2024-02-26T11:01:15;5.90;;;3.50;;
12852;SDS011;6495;51.808;7.478;2024-02-26T11:03:45;4.40;;;3.20;;
12852;SDS011;6495;51.808;7.478;2024-02-26T11:06:15;3.80;;;2.70;;
12852;SDS011;6495;51.808;7.478;2024-02-26T11:08:48;3.70;;;2.20;;
12852;SDS011;6495;51.808;7.478;2024-02-26T11:11:18;3.43;;;2.67;;
12852;SDS011;6495;51.808;7.478;2024-02-26T11:13:51;4.43;;;2.93;;
12852;SDS011;6495;51.808;7.478;2024-02-26T11:16:22;5.37;;;3.10;;
12852;SDS011;6495;51.808;7.478;2024-02-26T11:18:55;4.87;;;2.87;;
12852;SDS011;6495;51.808;7.478;2024-02-26T11:21:25;5.23;;;2.67;;
12852;SDS011;6495;51.808;7.478;2024-02-26T11:24:06;4.00;;;2.83;;
12852;SDS011;6495;51.808;7.478;2024-02-26T11:26:40;4.13;;;2.80;;
12852;SDS011;6495;51.808;7.478;2024-02-26T11:29:21;4.87;;;3.33;;
12852;SDS011;6495;51.808;7.478;2024-02-26T11:31:52;3.10;;;2.50;;
12852;SDS011;6495;51.808;7.478;2024-02-26T11:34:21;4.30;;;2.83;;
12852;SDS011;6495;51.808;7.478;2024-02-26T11:36:51;4.23;;;2.23;;
12852;SDS011;6495;51.808;7.478;2024-02-26T11:39:21;3.97;;;2.83;;
12852;SDS011;6495;51.808;7.478;2024-02-26T11:41:50;4.67;;;2.47;;
12852;SDS011;6495;51.808;7.478;2024-02-26T11:44:30;3.50;;;2.43;;
12852;SDS011;6495;51.808;7.478;2024-02-26T11:46:58;3.50;;;2.30;;
12852;SDS011;6495;51.808;7.478;2024-02-26T11:49:39;3.43;;;2.43;;
12852;SDS011;6495;51.808;7.478;2024-02-26T11:52:09;5.07;;;2.93;;
12852;SDS011;6495;51.808;7.478;2024-02-26T11:54:43;5.50;;;3.13;;
12852;SDS011;6495;51.808;7.478;2024-02-26T11:57:21;3.30;;;2.70;;
12852;SDS011;6495;51.808;7.478;2024-02-26T11:59:54;4.13;;;2.60;;
12852;SDS011;6495;51.808;7.478;2024-02-26T12:02:41;2.40;;;1.93;;
12852;SDS011;6495;51.808;7.478;2024-02-26T12:05:14;2.70;;;2.43;;
12852;SDS011;6495;51.808;7.478;2024-02-26T12:07:46;2.40;;;2.20;;
12852;SDS011;6495;51.808;7.478;2024-02-26T12:10:27;2.60;;;1.70;;
12852;SDS011;6495;51.808;7.478;2024-02-26T12:13:03;2.20;;;1.90;;
12852;SDS011;6495;51.808;7.478;2024-02-26T12:15:36;3.10;;;2.13;;
12852;SDS011;6495;51.808;7.478;2024-02-26T12:18:07;3.63;;;2.33;;
12852;SDS011;6495;51.808;7.478;2024-02-26T12:20:44;2.67;;;2.03;;
12852;SDS011;6495;51.808;7.478;2024-02-26T12:23:14;2.57;;;1.93;;
12852;SDS011;6495;51.808;7.478;2024-02-26T12:25:46;2.90;;;2.20;;
12852;SDS011;6495;51.808;7.478;2024-02-26T12:28:17;2.53;;;2.20;;
12852;SDS011;6495;51.808;7.478;2024-02-26T12:30:49;3.40;;;1.83;;
12852;SDS011;6495;51.808;7.478;2024-02-26T12:33:17;2.17;;;1.63;;
12852;SDS011;6495;51.808;7.478;2024-02-26T12:35:47;2.70;;;2.20;;
12852;SDS011;6495;51.808;7.478;2024-02-26T12:38:16;2.27;;;1.60;;
12852;SDS011;6495;51.808;7.478;2024-02-26T12:40:46;3.03;;;1.90;;
12852;SDS011;6495;51.808;7.478;2024-02-26T12:43:15;1.93;;;1.70;;
12852;SDS011;6495;51.808;7.478;2024-02-26T12:45:44;3.83;;;1.90;;
12852;SDS011;6495;51.808;7.478;2024-02-26T12:48:14;3.07;;;1.80;;
12852;SDS011;6495;51.808;7.478;2024-02-26T12:50:44;3.70;;;1.87;;
12852;SDS011;6495;51.808;7.478;2024-02-26T12:53:14;4.40;;;1.83;;
12852;SDS011;6495;51.808;7.478;2024-02-26T12:55:43;1.93;;;1.73;;
12852;SDS011;6495;51.808;7.478;2024-02-26T12:58:13;2.50;;;2.00;;
12852;SDS011;6495;51.808;7.478;2024-02-26T13:00:42;3.07;;;2.10;;
12852;SDS011;6495;51.808;7.478;2024-02-26T13:03:13;2.13;;;1.70;;
12852;SDS011;6495;51.808;7.478;2024-02-26T13:05:42;2.20;;;1.60;;
12852;SDS011;6495;51.808;7.478;2024-02-26T13:08:16;2.20;;;1.67;;
12852;SDS011;6495;51.808;7.478;2024-02-26T13:10:47;2.80;;;1.77;;
12852;SDS011;6495;51.808;7.478;2024-02-26T13:13:18;2.40;;;1.83;;
12852;SDS011;6495;51.808;7.478;2024-02-26T13:15:49;3.00;;;2.03;;
12852;SDS011;6495;51.808;7.478;2024-02-26T13:18:29;2.53;;;1.80;;
12852;SDS011;6495;51.808;7.478;2024-02-26T13:21:07;2.27;;;1.83;;
12852;SDS011;6495;51.808;7.478;2024-02-26T13:23:37;3.00;;;1.90;;
12852;SDS011;6495;51.808;7.478;2024-02-26T13:26:09;2.37;;;1.63;;
12852;SDS011;6495;51.808;7.478;2024-02-26T13:28:41;1.97;;;1.70;;
12852;SDS011;6495;51.808;7.478;2024-02-26T13:31:13;2.87;;;2.00;;
12852;SDS011;6495;51.808;7.478;2024-02-26T13:33:41;2.80;;;2.00;;
12852;SDS011;6495;51.808;7.478;2024-02-26T13:36:15;2.73;;;2.00;;
12852;SDS011;6495;51.808;7.478;2024-02-26T13:38:50;4.00;;;2.33;;
12852;SDS011;6495;51.808;7.478;2024-02-26T13:41:21;1.80;;;1.50;;
12852;SDS011;6495;51.808;7.478;2024-02-26T13:43:51;2.10;;;1.90;;
12852;SDS011;6495;51.808;7.478;2024-02-26T13:46:20;3.53;;;2.20;;
12852;SDS011;6495;51.808;7.478;2024-02-26T13:48:49;6.03;;;2.00;;
12852;SDS011;6495;51.808;7.478;2024-02-26T13:51:17;3.47;;;2.20;;
12852;SDS011;6495;51.808;7.478;2024-02-26T13:53:46;3.00;;;1.60;;
12852;SDS011;6495;51.808;7.478;2024-02-26T13:56:15;1.83;;;1.60;;
12852;SDS011;6495;51.808;7.478;2024-02-26T13:58:45;4.07;;;2.03;;
12852;SDS011;6495;51.808;7.478;2024-02-26T14:01:14;2.93;;;2.00;;
12852;SDS011;6495;51.808;7.478;2024-02-26T14:03:45;2.73;;;2.17;;
12852;SDS011;6495;51.808;7.478;2024-02-26T14:06:15;2.77;;;1.90;;
12852;SDS011;6495;51.808;7.478;2024-02-26T14:08:44;2.67;;;2.10;;
12852;SDS011;6495;51.808;7.478;2024-02-26T14:11:13;2.57;;;2.00;;
12852;SDS011;6495;51.808;7.478;2024-02-26T14:13:41;3.87;;;1.80;;
12852;SDS011;6495;51.808;7.478;2024-02-26T14:16:13;2.37;;;1.90;;
12852;SDS011;6495;51.808;7.478;2024-02-26T14:18:41;2.70;;;2.00;;
12852;SDS011;6495;51.808;7.478;2024-02-26T14:21:12;2.20;;;1.97;;
12852;SDS011;6495;51.808;7.478;2024-02-26T14:23:40;2.97;;;1.97;;
12852;SDS011;6495;51.808;7.478;2024-02-26T14:26:16;2.00;;;1.70;;
12852;SDS011;6495;51.808;7.478;2024-02-26T14:28:44;3.27;;;1.70;;
12852;SDS011;6495;51.808;7.478;2024-02-26T14:31:16;2.17;;;1.80;;
12852;SDS011;6495;51.808;7.478;2024-02-26T14:33:48;3.60;;;2.13;;
12852;SDS011;6495;51.808;7.478;2024-02-26T14:36:20;2.10;;;1.90;;
12852;SDS011;6495;51.808;7.478;2024-02-26T14:38:49;1.93;;;1.80;;
12852;SDS011;6495;51.808;7.478;2024-02-26T14:41:21;2.53;;;1.80;;
12852;SDS011;6495;51.808;7.478;2024-02-26T14:43:49;2.00;;;1.80;;
12852;SDS011;6495;51.808;7.478;2024-02-26T14:46:19;2.63;;;2.00;;
12852;SDS011;6495;51.808;7.478;2024-02-26T14:48:51;2.90;;;1.93;;
12852;SDS011;6495;51.808;7.478;2024-02-26T14:51:22;2.93;;;2.00;;
12852;SDS011;6495;51.808;7.478;2024-02-26T14:53:51;2.47;;;1.63;;
12852;SDS011;6495;51.808;7.478;2024-02-26T14:56:20;2.30;;;1.77;;
12852;SDS011;6495;51.808;7.478;2024-02-26T14:58:51;2.93;;;2.00;;
12852;SDS011;6495;51.808;7.478;2024-02-26T15:01:21;3.63;;;1.80;;
12852;SDS011;6495;51.808;7.478;2024-02-26T15:03:50;2.33;;;2.10;;
12852;SDS011;6495;51.808;7.478;2024-02-26T15:06:19;1.90;;;1.70;;
12852;SDS011;6495;51.808;7.478;2024-02-26T15:08:51;4.27;;;2.00;;
12852;SDS011;6495;51.808;7.478;2024-02-26T15:11:20;2.30;;;2.10;;
12852;SDS011;6495;51.808;7.478;2024-02-26T15:13:48;1.77;;;1.63;;
12852;SDS011;6495;51.808;7.478;2024-02-26T15:16:19;2.17;;;1.90;;